Time;durP1;ratioP1;P1;durP2;ratioP2;P2;SDS_P1;SDS_P2;PMS_P1;PMS_P2;Temp;Humidity;BMP_temperature;BMP_pressure;BME280_temperature;BME280_humidity;BME280_pressure;Samples;Min_cycle;Max_cycle;Signal;HPM_P1;HPM_P2
2022/12/17 13:08:17;;;;;;;;;;;;;;;17.08;71.81;100776.59;7400861;19;907;-65
2022/12/17 13:10:45;;;;;;;;;;;;;;;17.04;71.82;100796.53;7400850;19;1055;-65
2022/12/17 13:13:19;;;;;;;;;;;;;;;17.03;71.84;100752.94;7400696;19;1079;-65
2022/12/17 13:15:49;;;;;;;;;;;;;;;17.05;71.83;100734.97;7400646;19;1036;-65
2022/12/17 13:18:22;;;;;;;;;;;;;;;17.03;72.00;100707.53;7400939;19;927;-66
2022/12/17 13:20:58;;;;;;;;;;;;;;;16.99;71.74;100743.47;7398598;19;1872;-66
2022/12/17 13:23:29;;;;;;;;;;;;;;;17.06;71.72;100806.09;7400762;19;915;-64
2022/12/17 13:26:12;;;;;;;;;;;;;;;17.05;71.71;100768.81;7400929;19;968;-65
2022/12/17 13:28:41;;;;;;;;;;;;;;;17.05;71.74;100819.56;7400301;19;1048;-64
2022/12/17 13:31:17;;;;;;;;;;;;;;;17.05;71.58;100809.75;7400166;19;955;-65
2022/12/17 13:33:50;;;;;;;;;;;;;;;17.12;71.74;100801.25;7400663;19;994;-66
2022/12/17 13:36:22;;;;;;;;;;;;;;;17.10;71.35;100818.25;7400512;19;990;-66
2022/12/17 13:38:56;;;;;;;;;;;;;;;17.08;71.31;100809.50;7398120;19;1472;-66
2022/12/17 13:41:29;;;;;;;;;;;;;;;17.08;71.62;100814.84;7398613;19;1857;-65
2022/12/17 13:43:59;;;;;;;;;;;;;;;17.06;71.34;100811.44;7400310;19;998;-64
2022/12/17 13:46:28;;;;;;;;;;;;;;;17.04;71.53;100808.06;7399872;19;1004;-66
2022/12/17 13:49:00;;;;;;;;;;;;;;;17.03;71.79;100821.53;7400157;19;927;-66
2022/12/17 13:51:30;;;;;;;;;;;;;;;17.00;71.59;100817.28;7399677;19;997;-65
2022/12/17 13:53:59;;;;;;;;;;;;;;;17.01;71.52;100819.00;7399509;19;945;-65
2022/12/17 13:56:29;;;;;;;;;;;;;;;16.99;71.73;100831.63;7400053;19;976;-65
2022/12/17 13:59:01;;;;;;;;;;;;;;;16.97;71.77;100830.91;7399477;19;989;-65
2022/12/17 14:01:29;;;;;;;;;;;;;;;16.98;71.80;100839.75;7401730;19;1897;-66
2022/12/17 14:04:01;;;;;;;;;;;;;;;16.93;71.59;100858.81;7407070;19;970;-65
2022/12/17 14:06:31;;;;;;;;;;;;;;;16.94;71.62;100852.50;7406518;19;872;-66
2022/12/17 14:09:00;;;;;;;;;;;;;;;16.92;71.86;100857.09;7406537;19;1064;-66
2022/12/17 14:14:11;;;;;;;;;;;;;;;16.92;71.72;100877.63;7406869;19;667;-64
2022/12/17 14:16:42;;;;;;;;;;;;;;;16.94;72.03;100875.69;7406690;19;944;-66
2022/12/17 14:19:13;;;;;;;;;;;;;;;16.90;71.89;100875.06;7406536;19;952;-66
2022/12/17 14:21:41;;;;;;;;;;;;;;;16.91;72.08;100871.44;7404451;19;2217;-66
2022/12/17 14:24:14;;;;;;;;;;;;;;;16.87;71.84;100886.84;7403764;19;1377;-65
2022/12/17 14:26:50;;;;;;;;;;;;;;;16.86;72.09;100884.28;7405947;19;997;-66
2022/12/17 14:29:23;;;;;;;;;;;;;;;16.87;72.09;100891.31;7405732;19;953;-65
2022/12/17 14:31:56;;;;;;;;;;;;;;;16.90;72.12;100886.59;7403659;19;1496;-65
2022/12/17 14:34:27;;;;;;;;;;;;;;;16.87;71.80;100904.69;7405978;19;976;-65
2022/12/17 14:36:56;;;;;;;;;;;;;;;16.88;71.84;100903.72;7405080;19;1468;-65
2022/12/17 14:39:25;;;;;;;;;;;;;;;16.87;72.14;100910.91;7405951;19;1029;-65
2022/12/17 14:44:36;;;;;;;;;;;;;;;16.85;72.02;100917.31;7406276;19;749;-66
2022/12/17 14:47:15;;;;;;;;;;;;;;;16.83;72.11;100895.19;7405738;19;984;-67
2022/12/17 14:49:53;;;;;;;;;;;;;;;16.82;71.88;100909.53;7405499;19;1004;-66
2022/12/17 14:52:24;;;;;;;;;;;;;;;16.82;71.92;100923.75;7408260;19;1518;-66
2022/12/17 14:54:53;;;;;;;;;;;;;;;16.82;71.98;100925.56;7405177;19;952;-66
2022/12/17 14:57:22;;;;;;;;;;;;;;;16.78;72.17;100937.41;7404956;19;1024;-66
2022/12/17 14:59:51;;;;;;;;;;;;;;;16.77;72.02;100939.25;7404873;19;1868;-65
2022/12/17 15:02:25;;;;;;;;;;;;;;;16.76;71.75;100945.53;7405529;19;986;-66
2022/12/17 15:04:58;;;;;;;;;;;;;;;16.76;71.81;100939.34;7404632;19;960;-66
2022/12/17 15:07:28;;;;;;;;;;;;;;;16.72;71.94;100943.22;7404760;19;1348;-66
2022/12/17 15:09:57;;;;;;;;;;;;;;;16.73;72.00;100951.09;7407507;19;1116;-66
2022/12/17 15:12:26;;;;;;;;;;;;;;;16.74;72.07;100968.84;7402456;19;1913;-65
2022/12/17 15:14:54;;;;;;;;;;;;;;;16.70;72.07;100970.88;7401331;19;913;-66
2022/12/17 15:17:22;;;;;;;;;;;;;;;16.70;72.00;100978.91;7402529;19;1141;-65
2022/12/17 15:19:51;;;;;;;;;;;;;;;16.72;71.82;100983.28;7398499;19;993;-65
2022/12/17 15:22:21;;;;;;;;;;;;;;;16.74;72.08;100982.19;7399898;19;1866;-66
2022/12/17 15:24:50;;;;;;;;;;;;;;;16.70;71.95;100981.56;7403554;19;952;-66
2022/12/17 15:27:18;;;;;;;;;;;;;;;16.73;71.99;100984.97;7404074;19;952;-66
2022/12/17 15:29:47;;;;;;;;;;;;;;;16.67;72.06;100976.47;7404531;19;1395;-67
2022/12/17 15:32:19;;;;;;;;;;;;;;;16.68;72.02;100996.84;7403678;19;1004;-66
2022/12/17 15:34:47;;;;;;;;;;;;;;;16.72;72.00;101010.84;7403650;19;1005;-66
2022/12/17 15:37:16;;;;;;;;;;;;;;;16.69;72.08;101014.59;7402840;19;1387;-66
2022/12/17 15:39:47;;;;;;;;;;;;;;;16.69;72.34;101022.59;7403907;19;916;-66
2022/12/17 15:44:56;;;;;;;;;;;;;;;16.75;71.83;101031.09;7404173;19;687;-66
2022/12/17 15:47:25;;;;;;;;;;;;;;;16.75;71.77;101031.09;7403239;19;1000;-66
2022/12/17 15:49:53;;;;;;;;;;;;;;;16.69;72.07;101048.44;7402981;19;981;-66
2022/12/17 15:52:21;;;;;;;;;;;;;;;16.66;72.23;101046.84;7403049;19;1072;-66
2022/12/17 15:54:52;;;;;;;;;;;;;;;16.66;72.16;101062.03;7402881;19;841;-66
2022/12/17 15:57:21;;;;;;;;;;;;;;;16.65;71.97;101071.88;7403410;19;1130;-66
2022/12/17 15:59:49;;;;;;;;;;;;;;;16.65;72.13;101081.66;7402748;19;984;-67
2022/12/17 16:02:17;;;;;;;;;;;;;;;16.66;72.18;101083.38;7401584;19;1849;-66
2022/12/17 16:04:45;;;;;;;;;;;;;;;16.59;72.18;101083.00;7402599;19;1001;-66
2022/12/17 16:07:15;;;;;;;;;;;;;;;16.61;71.90;101086.41;7402946;19;964;-67
2022/12/17 16:09:43;;;;;;;;;;;;;;;16.59;71.92;101101.69;7402486;19;961;-66
2022/12/17 16:12:14;;;;;;;;;;;;;;;16.60;72.21;101097.19;7402385;19;974;-66
2022/12/17 16:14:42;;;;;;;;;;;;;;;16.60;71.99;101107.88;7402830;19;968;-67
2022/12/17 16:17:11;;;;;;;;;;;;;;;16.56;72.17;101117.91;7402194;19;981;-66
2022/12/17 16:19:39;;;;;;;;;;;;;;;16.57;72.16;101114.25;7402155;19;1063;-66
2022/12/17 16:22:07;;;;;;;;;;;;;;;16.55;72.37;101112.69;7400774;19;1863;-67
2022/12/17 16:24:36;;;;;;;;;;;;;;;16.58;72.32;101125.81;7399389;19;993;-67
2022/12/17 16:27:04;;;;;;;;;;;;;;;16.56;72.14;101133.94;7402005;19;1055;-67
2022/12/17 16:29:35;;;;;;;;;;;;;;;16.57;72.14;101124.94;7401963;19;806;-66
2022/12/17 16:32:03;;;;;;;;;;;;;;;16.53;72.28;101136.81;7402196;19;923;-66
2022/12/17 16:34:32;;;;;;;;;;;;;;;16.54;72.32;101146.53;7401755;19;1067;-66
2022/12/17 16:37:00;;;;;;;;;;;;;;;16.48;72.19;101146.97;7400930;19;1374;-66
2022/12/17 16:39:29;;;;;;;;;;;;;;;16.50;72.11;101150.41;7401774;19;1023;-67
2022/12/17 16:41:57;;;;;;;;;;;;;;;16.52;72.01;101152.97;7400484;19;1857;-66
2022/12/17 16:44:25;;;;;;;;;;;;;;;16.53;72.20;101158.16;7401342;19;1064;-66
2022/12/17 16:46:56;;;;;;;;;;;;;;;16.52;71.95;101185.00;7401491;19;1008;-66
2022/12/17 16:49:25;;;;;;;;;;;;;;;16.52;72.21;101191.19;7401726;19;998;-66
2022/12/17 16:51:54;;;;;;;;;;;;;;;16.55;71.97;101188.28;7401755;19;993;-66
2022/12/17 16:54:24;;;;;;;;;;;;;;;16.49;71.92;101178.91;7401541;19;1082;-67
2022/12/17 16:56:53;;;;;;;;;;;;;;;16.47;72.04;101199.53;7402096;19;989;-67
2022/12/17 16:59:22;;;;;;;;;;;;;;;16.46;72.32;101203.13;7401065;19;1236;-67
2022/12/17 17:01:51;;;;;;;;;;;;;;;16.49;72.29;101207.41;7400248;19;1838;-66
2022/12/17 17:04:22;;;;;;;;;;;;;;;16.46;72.12;101213.81;7401049;19;944;-66
2022/12/17 17:06:52;;;;;;;;;;;;;;;16.48;72.28;101222.56;7399311;19;1927;-66
2022/12/17 17:09:21;;;;;;;;;;;;;;;16.48;72.10;101225.25;7400850;19;1005;-67
2022/12/17 17:11:49;;;;;;;;;;;;;;;16.46;72.12;101226.31;7401264;19;1021;-66
2022/12/17 17:14:18;;;;;;;;;;;;;;;16.44;72.26;101215.75;7401157;19;897;-67
2022/12/17 17:16:46;;;;;;;;;;;;;;;16.48;72.15;101216.38;7401154;19;1149;-67
2022/12/17 17:19:15;;;;;;;;;;;;;;;16.49;71.91;101223.41;7400478;19;1072;-67
2022/12/17 17:21:50;;;;;;;;;;;;;;;16.48;72.05;101222.56;7399993;19;1861;-66
2022/12/17 17:24:19;;;;;;;;;;;;;;;16.49;71.81;101242.09;7400304;19;942;-66
2022/12/17 17:26:48;;;;;;;;;;;;;;;16.42;72.03;101244.38;7403191;19;1383;-65
2022/12/17 17:29:16;;;;;;;;;;;;;;;16.41;71.98;101225.78;7400330;19;1019;-65
2022/12/17 17:31:45;;;;;;;;;;;;;;;16.39;72.25;101238.38;7400174;19;1080;-66
2022/12/17 17:34:14;;;;;;;;;;;;;;;16.40;71.96;101259.63;7400615;19;1026;-66
2022/12/17 17:36:42;;;;;;;;;;;;;;;16.39;72.01;101251.72;7405141;19;1379;-66
2022/12/17 17:39:13;;;;;;;;;;;;;;;16.41;72.18;101249.81;7407941;19;981;-66
2022/12/17 17:41:42;;;;;;;;;;;;;;;16.40;71.97;101253.44;7405026;19;1841;-66
2022/12/17 17:44:12;;;;;;;;;;;;;;;16.41;71.84;101269.38;7407355;19;993;-66
2022/12/17 17:46:41;;;;;;;;;;;;;;;16.40;71.95;101272.97;7407732;19;1193;-66
2022/12/17 17:49:11;;;;;;;;;;;;;;;16.41;72.18;101281.84;7407546;19;975;-66
2022/12/17 17:51:40;;;;;;;;;;;;;;;16.41;72.28;101268.47;7407143;19;994;-66
2022/12/17 17:54:08;;;;;;;;;;;;;;;16.40;71.94;101256.13;7407435;19;932;-66
2022/12/17 17:56:41;;;;;;;;;;;;;;;16.38;71.92;101282.06;7407241;19;928;-66
2022/12/17 17:59:11;;;;;;;;;;;;;;;16.39;71.88;101265.91;7406894;19;965;-66
2022/12/17 18:01:41;;;;;;;;;;;;;;;16.38;72.14;101274.06;7406039;19;1849;-66
2022/12/17 18:04:10;;;;;;;;;;;;;;;16.32;72.16;101272.66;7407149;19;999;-66
2022/12/17 18:06:38;;;;;;;;;;;;;;;16.39;71.88;101283.75;7406535;19;1061;-66
2022/12/17 18:09:07;;;;;;;;;;;;;;;16.39;72.16;101291.75;7403826;19;1405;-66
2022/12/17 18:11:35;;;;;;;;;;;;;;;16.38;72.19;101292.75;7406499;19;1032;-66
2022/12/17 18:14:05;;;;;;;;;;;;;;;16.34;71.97;101291.25;7406691;19;987;-66
2022/12/17 18:16:34;;;;;;;;;;;;;;;16.38;71.73;101298.06;7404073;19;1476;-66
2022/12/17 18:19:03;;;;;;;;;;;;;;;16.35;72.04;101301.78;7406091;19;1299;-67
2022/12/17 18:21:32;;;;;;;;;;;;;;;16.30;71.89;101291.44;7405779;19;1853;-67
2022/12/17 18:24:02;;;;;;;;;;;;;;;16.31;71.87;101294.94;7405862;19;974;-66
2022/12/17 18:26:31;;;;;;;;;;;;;;;16.29;72.01;101295.09;7406395;19;1005;-66
2022/12/17 18:29:01;;;;;;;;;;;;;;;16.30;72.13;101304.78;7406589;19;996;-66
2022/12/17 18:31:32;;;;;;;;;;;;;;;16.31;72.15;101310.97;7406173;19;956;-67
2022/12/17 18:34:02;;;;;;;;;;;;;;;16.28;72.30;101301.38;7406178;19;1190;-66
2022/12/17 18:36:32;;;;;;;;;;;;;;;16.27;72.22;101305.00;7405481;19;1372;-66
2022/12/17 18:39:00;;;;;;;;;;;;;;;16.29;72.20;101324.44;7403562;19;1105;-66
2022/12/17 18:44:09;;;;;;;;;;;;;;;16.29;72.31;101321.78;7406261;19;839;-66
2022/12/17 18:46:40;;;;;;;;;;;;;;;16.28;72.25;101316.53;7404087;19;952;-66
2022/12/17 18:49:10;;;;;;;;;;;;;;;16.30;71.95;101325.28;7404855;19;994;-66
2022/12/17 18:51:39;;;;;;;;;;;;;;;16.30;72.11;101333.28;7405298;19;964;-67
2022/12/17 18:54:09;;;;;;;;;;;;;;;16.26;71.94;101334.47;7405050;19;1012;-66
2022/12/17 18:56:37;;;;;;;;;;;;;;;16.27;72.14;101337.03;7405380;19;974;-67
2022/12/17 18:59:06;;;;;;;;;;;;;;;16.24;71.91;101347.91;7405398;19;919;-67
2022/12/17 19:01:36;;;;;;;;;;;;;;;16.27;72.07;101357.50;7404241;19;1853;-66
2022/12/17 19:04:08;;;;;;;;;;;;;;;16.24;71.94;101363.91;7405158;19;964;-67
2022/12/17 19:06:37;;;;;;;;;;;;;;;16.23;71.88;101346.16;7405016;19;1027;-66
2022/12/17 19:09:06;;;;;;;;;;;;;;;16.26;71.78;101364.66;7404598;19;1064;-66
2022/12/17 19:11:35;;;;;;;;;;;;;;;16.23;71.87;101361.34;7404986;19;968;-66
2022/12/17 19:14:03;;;;;;;;;;;;;;;16.24;71.85;101363.91;7404699;19;1006;-66
2022/12/17 19:16:32;;;;;;;;;;;;;;;16.27;71.89;101368.19;7404482;19;952;-66
2022/12/17 19:19:02;;;;;;;;;;;;;;;16.24;71.79;101374.59;7404117;19;1161;-67
2022/12/17 19:21:34;;;;;;;;;;;;;;;16.24;72.04;101379.06;7404288;19;1836;-66
2022/12/17 19:24:04;;;;;;;;;;;;;;;16.21;71.90;101385.44;7404647;19;1045;-66
2022/12/17 19:26:32;;;;;;;;;;;;;;;16.21;72.10;101379.25;7402374;19;1384;-66
2022/12/17 19:29:01;;;;;;;;;;;;;;;16.18;71.88;101391.00;7404043;19;964;-66
2022/12/17 19:31:31;;;;;;;;;;;;;;;16.18;71.92;101390.16;7403824;19;1004;-66
2022/12/17 19:34:00;;;;;;;;;;;;;;;16.18;71.98;101396.34;7404196;19;935;-67
2022/12/17 19:36:29;;;;;;;;;;;;;;;16.15;72.05;101363.66;7403914;19;1387;-66
2022/12/17 19:39:01;;;;;;;;;;;;;;;16.13;71.84;101382.44;7402052;19;1163;-66
2022/12/17 19:41:30;;;;;;;;;;;;;;;16.13;72.02;101382.44;7401432;19;1854;-67
2022/12/17 19:43:59;;;;;;;;;;;;;;;16.17;71.83;101389.28;7403734;19;1000;-66
2022/12/17 19:46:28;;;;;;;;;;;;;;;16.12;71.84;101374.56;7403355;19;1051;-66
2022/12/17 19:48:56;;;;;;;;;;;;;;;16.15;71.97;101383.19;7403144;19;970;-66
2022/12/17 19:51:25;;;;;;;;;;;;;;;16.17;71.76;101405.28;7403598;19;978;-66
2022/12/17 19:53:54;;;;;;;;;;;;;;;16.17;71.77;101399.09;7403179;19;821;-66
2022/12/17 19:56:26;;;;;;;;;;;;;;;16.15;71.84;101398.34;7403020;19;1081;-67
2022/12/17 19:58:55;;;;;;;;;;;;;;;16.15;71.72;101415.22;7402806;19;991;-66
2022/12/17 20:01:24;;;;;;;;;;;;;;;16.15;72.01;101420.53;7403137;19;995;-66
2022/12/17 20:03:53;;;;;;;;;;;;;;;16.16;72.10;101435.63;7403222;19;974;-66
2022/12/17 20:06:23;;;;;;;;;;;;;;;16.17;71.68;101439.13;7403146;19;1096;-66
2022/12/17 20:08:52;;;;;;;;;;;;;;;16.14;71.83;101434.88;7402501;19;1083;-67
2022/12/17 20:14:05;;;;;;;;;;;;;;;16.18;72.05;101446.19;7402989;19;813;-66
2022/12/17 20:16:35;;;;;;;;;;;;;;;16.12;72.04;101443.94;7402282;19;1009;-66
2022/12/17 20:19:04;;;;;;;;;;;;;;;16.13;71.91;101451.81;7402197;19;1071;-66
2022/12/17 20:21:33;;;;;;;;;;;;;;;16.13;72.07;101470.50;7402294;19;960;-66
2022/12/17 20:24:01;;;;;;;;;;;;;;;16.10;71.84;101463.56;7402329;19;1063;-66
2022/12/17 20:26:30;;;;;;;;;;;;;;;16.08;71.78;101459.28;7402540;19;916;-66
2022/12/17 20:28:58;;;;;;;;;;;;;;;16.06;71.76;101466.53;7401823;19;1083;-66
2022/12/17 20:31:29;;;;;;;;;;;;;;;16.09;71.94;101468.97;7402257;19;931;-66
2022/12/17 20:33:58;;;;;;;;;;;;;;;16.07;71.86;101462.88;7401845;19;1098;-66
2022/12/17 20:36:26;;;;;;;;;;;;;;;16.09;71.73;101476.97;7402068;19;1375;-66
2022/12/17 20:38:55;;;;;;;;;;;;;;;16.06;71.77;101475.38;7400455;19;1162;-67
2022/12/17 20:41:24;;;;;;;;;;;;;;;16.07;72.14;101485.06;7401675;19;989;-67
2022/12/17 20:43:52;;;;;;;;;;;;;;;16.05;72.01;101492.31;7399935;19;1829;-66
2022/12/17 20:46:21;;;;;;;;;;;;;;;16.04;72.08;101500.44;7401607;19;985;-66
2022/12/17 20:48:53;;;;;;;;;;;;;;;16.03;71.92;101509.41;7401342;19;1016;-66
2022/12/17 20:51:22;;;;;;;;;;;;;;;16.06;72.02;101487.88;7401874;19;952;-67
2022/12/17 20:53:51;;;;;;;;;;;;;;;16.09;71.69;101509.88;7401392;19;945;-66
2022/12/17 20:56:20;;;;;;;;;;;;;;;16.06;71.98;101510.06;7401616;19;994;-67
2022/12/17 20:58:49;;;;;;;;;;;;;;;16.04;71.82;101511.97;7403626;19;997;-66
2022/12/17 21:01:19;;;;;;;;;;;;;;;16.09;71.96;101514.34;7399252;19;953;-66
2022/12/17 21:03:48;;;;;;;;;;;;;;;16.06;71.67;101514.53;7399400;19;1837;-66
2022/12/17 21:06:20;;;;;;;;;;;;;;;16.06;71.68;101525.22;7401412;19;933;-66
2022/12/17 21:08:50;;;;;;;;;;;;;;;16.08;71.73;101526.81;7401190;19;1015;-66
2022/12/17 21:11:18;;;;;;;;;;;;;;;16.07;71.66;101532.25;7402998;19;1175;-66
2022/12/17 21:13:47;;;;;;;;;;;;;;;16.08;71.90;101532.16;7408269;19;1020;-66
2022/12/17 21:16:16;;;;;;;;;;;;;;;16.04;71.69;101532.47;7408722;19;982;-67
2022/12/17 21:18:44;;;;;;;;;;;;;;;16.05;71.65;101523.50;7408691;19;988;-66
2022/12/17 21:21:15;;;;;;;;;;;;;;;16.03;72.00;101506.72;7408091;19;996;-66
2022/12/17 21:23:46;;;;;;;;;;;;;;;16.01;71.79;101513.97;7406334;19;1854;-66
2022/12/17 21:26:16;;;;;;;;;;;;;;;16.00;71.82;101522.94;7407915;19;1055;-67
2022/12/17 21:28:46;;;;;;;;;;;;;;;15.99;71.81;101531.88;7408394;19;952;-66
2022/12/17 21:31:18;;;;;;;;;;;;;;;15.99;71.99;101535.41;7408264;19;931;-66
2022/12/17 21:33:47;;;;;;;;;;;;;;;15.99;72.06;101555.91;7407865;19;1008;-66
2022/12/17 21:36:16;;;;;;;;;;;;;;;15.91;72.08;101519.03;7408131;19;935;-66
2022/12/17 21:38:47;;;;;;;;;;;;;;;15.98;72.01;101540.88;7405145;19;1413;-66
2022/12/17 21:41:16;;;;;;;;;;;;;;;15.99;72.14;101558.56;7407534;19;1076;-66
2022/12/17 21:43:45;;;;;;;;;;;;;;;15.97;72.04;101558.66;7405438;19;1846;-66
2022/12/17 21:46:14;;;;;;;;;;;;;;;15.96;71.92;101548.94;7407364;19;981;-66
2022/12/17 21:48:43;;;;;;;;;;;;;;;15.97;71.78;101547.13;7407679;19;924;-66
2022/12/17 21:51:12;;;;;;;;;;;;;;;15.94;71.70;101531.34;7407294;19;940;-66
2022/12/17 21:53:42;;;;;;;;;;;;;;;15.95;71.77;101544.56;7407114;19;1067;-66
2022/12/17 21:56:14;;;;;;;;;;;;;;;15.95;72.02;101543.72;7406951;19;995;-67
2022/12/17 21:58:43;;;;;;;;;;;;;;;15.98;71.95;101560.38;7407430;19;1002;-66
2022/12/17 22:01:13;;;;;;;;;;;;;;;15.97;71.82;101550.66;7407322;19;1243;-66
2022/12/17 22:03:42;;;;;;;;;;;;;;;15.97;71.57;101541.78;7405069;19;1850;-66
2022/12/17 22:06:11;;;;;;;;;;;;;;;15.98;71.82;101570.19;7406627;19;1075;-66
2022/12/17 22:08:40;;;;;;;;;;;;;;;15.96;71.59;101562.28;7406500;19;988;-67
2022/12/17 22:11:13;;;;;;;;;;;;;;;15.99;71.56;101566.56;7406511;19;1060;-66
2022/12/17 22:16:23;;;;;;;;;;;;;;;15.96;71.75;101566.78;7406986;19;686;-66
2022/12/17 22:18:51;;;;;;;;;;;;;;;15.96;71.72;101577.44;7406253;19;952;-66
2022/12/17 22:21:19;;;;;;;;;;;;;;;15.95;71.86;101586.38;7406371;19;1022;-66
2022/12/17 22:23:49;;;;;;;;;;;;;;;15.96;71.70;101594.31;7404472;19;1856;-66
2022/12/17 22:26:20;;;;;;;;;;;;;;;15.94;71.94;101601.53;7406391;19;1009;-66
2022/12/17 22:28:49;;;;;;;;;;;;;;;15.94;71.78;101606.88;7405803;19;1031;-66
2022/12/17 22:33:59;;;;;;;;;;;;;;;15.93;71.71;101604.28;7406369;19;765;-66
2022/12/17 22:36:30;;;;;;;;;;;;;;;15.93;71.64;101618.47;7405981;19;1387;-66
2022/12/17 22:39:00;;;;;;;;;;;;;;;15.89;71.97;101620.47;7403708;19;1098;-66
2022/12/17 22:44:11;;;;;;;;;;;;;;;15.86;71.66;101622.50;7403599;19;1846;-67
2022/12/17 22:46:40;;;;;;;;;;;;;;;15.89;71.64;101617.81;7405383;19;1009;-66
2022/12/17 22:49:08;;;;;;;;;;;;;;;15.89;71.70;101628.47;7405640;19;923;-66
2022/12/17 22:51:37;;;;;;;;;;;;;;;15.86;71.85;101615.34;7405621;19;1015;-66
2022/12/17 22:54:06;;;;;;;;;;;;;;;15.84;71.93;101616.41;7405217;19;949;-66
2022/12/17 22:56:38;;;;;;;;;;;;;;;15.87;71.66;101617.03;7405412;19;1006;-67
2022/12/17 22:59:07;;;;;;;;;;;;;;;15.87;71.80;101618.88;7405015;19;1012;-66
2022/12/17 23:01:35;;;;;;;;;;;;;;;15.87;71.90;101617.03;7404726;19;997;-66
2022/12/17 23:04:04;;;;;;;;;;;;;;;15.86;71.56;101612.69;7403678;19;1853;-66
2022/12/17 23:06:32;;;;;;;;;;;;;;;15.86;71.42;101612.69;7405181;19;927;-66
2022/12/17 23:09:01;;;;;;;;;;;;;;;15.85;71.71;101642.09;7404551;19;988;-66
2022/12/17 23:11:30;;;;;;;;;;;;;;;15.84;71.75;101627.91;7404465;19;1001;-66
2022/12/17 23:14:01;;;;;;;;;;;;;;;15.85;71.52;101650.09;7404386;19;953;-66
2022/12/17 23:16:29;;;;;;;;;;;;;;;15.87;71.53;101648.19;7404837;19;960;-67
2022/12/17 23:18:57;;;;;;;;;;;;;;;15.86;71.63;101666.03;7404394;19;1078;-66
2022/12/17 23:21:26;;;;;;;;;;;;;;;15.86;71.54;101659.84;7404205;19;1008;-66
2022/12/17 23:23:56;;;;;;;;;;;;;;;15.86;71.41;101663.34;7403340;19;1850;-66
2022/12/17 23:26:25;;;;;;;;;;;;;;;15.86;71.73;101668.69;7404423;19;998;-66
2022/12/17 23:28:56;;;;;;;;;;;;;;;15.83;71.58;101657.34;7404033;19;1063;-66
2022/12/17 23:31:28;;;;;;;;;;;;;;;15.82;71.83;101685.84;7404215;19;1068;-66
2022/12/17 23:33:56;;;;;;;;;;;;;;;15.80;71.66;101678.88;7402546;19;1044;-66
2022/12/17 23:36:26;;;;;;;;;;;;;;;15.82;71.60;101693.84;7402097;19;1470;-67
2022/12/17 23:38:56;;;;;;;;;;;;;;;15.80;71.66;101698.41;7402059;19;1062;-66
2022/12/17 23:41:26;;;;;;;;;;;;;;;15.80;71.64;101692.22;7403564;19;1015;-67
2022/12/17 23:43:55;;;;;;;;;;;;;;;15.81;71.72;101700.09;7402317;19;1862;-66
2022/12/17 23:46:24;;;;;;;;;;;;;;;15.76;71.77;101712.88;7403807;19;1090;-66
2022/12/17 23:48:56;;;;;;;;;;;;;;;15.81;71.89;101717.91;7403311;19;941;-66
2022/12/17 23:51:26;;;;;;;;;;;;;;;15.79;71.81;101712.66;7403646;19;1006;-66
2022/12/17 23:53:55;;;;;;;;;;;;;;;15.77;71.76;101716.38;7403583;19;912;-66
2022/12/17 23:56:24;;;;;;;;;;;;;;;15.77;71.86;101724.38;7403039;19;1052;-67
2022/12/17 23:58:54;;;;;;;;;;;;;;;15.76;71.77;101704.88;7403432;19;979;-66
